Time,TemperatureF,DewpointF,PressureIn,WindDirection,WindDirectionDegrees,WindSpeedMPH,WindSpeedGustMPH,Humidity,HourlyPrecipIn,Conditions,Clouds,dailyrainin,SoftwareType,DateUTC
2013-03-12 00:02:00,45.0,40.0,29.90,NW,304,4.0,7.0,84,0.00,,,0.94,,2013-03-12 04:02:00,
2013-03-12 00:13:00,45.0,40.0,29.90,NW,304,4.0,7.0,84,0.00,,,0.94,,2013-03-12 04:13:00,
2013-03-12 00:22:00,45.0,41.0,29.90,NW,304,2.0,6.0,85,0.00,,,0.94,,2013-03-12 04:22:00,
2013-03-12 00:32:00,45.0,40.0,29.91,NNW,331,3.0,6.0,84,0.00,,,0.94,,2013-03-12 04:32:00,
2013-03-12 00:43:00,45.0,40.0,29.91,NNW,331,3.0,6.0,84,0.00,,,0.94,,2013-03-12 04:43:00,
2013-03-12 00:52:00,44.0,39.0,29.91,NW,306,4.0,9.0,82,0.00,,,0.94,,2013-03-12 04:52:00,
2013-03-12 01:02:00,43.0,38.0,29.91,NW,311,1.0,6.0,81,0.00,,,0.94,,2013-03-12 05:02:00,
2013-03-12 01:12:00,43.0,38.0,29.91,NW,311,1.0,6.0,81,0.00,,,0.94,,2013-03-12 05:12:00,
2013-03-12 01:22:00,42.0,37.0,29.91,NW,311,0.0,1.0,83,0.00,,,0.94,,2013-03-12 05:22:00,
2013-03-12 01:32:00,42.0,38.0,29.91,NW,311,1.0,2.0,84,0.00,,,0.94,,2013-03-12 05:32:00,
2013-03-12 01:42:00,42.0,38.0,29.91,NW,311,1.0,2.0,84,0.00,,,0.94,,2013-03-12 05:42:00,
2013-03-12 01:52:00,42.0,37.0,29.93,NW,322,1.0,4.0,83,0.00,,,0.94,,2013-03-12 05:52:00,
2013-03-12 02:02:00,42.0,38.0,29.93,WNW,303,0.0,5.0,84,0.00,,,0.94,,2013-03-12 06:02:00,
2013-03-12 02:12:00,42.0,38.0,29.93,WNW,303,0.0,5.0,84,0.00,,,0.94,,2013-03-12 06:12:00,
2013-03-12 02:22:00,41.0,37.0,29.93,NW,307,0.0,2.0,85,0.00,,,0.94,,2013-03-12 06:22:00,
2013-03-12 02:32:00,40.0,36.0,29.93,NW,307,0.0,1.0,86,0.00,,,0.94,,2013-03-12 06:32:00,
2013-03-12 02:42:00,40.0,36.0,29.93,NW,307,0.0,1.0,86,0.00,,,0.94,,2013-03-12 06:42:00,
2013-03-12 02:52:00,40.0,36.0,29.93,NW,308,0.0,3.0,87,0.00,,,0.94,,2013-03-12 06:52:00,
2013-03-12 03:02:00,41.0,37.0,29.93,NW,308,0.0,2.0,87,0.00,,,0.94,,2013-03-12 07:02:00,
2013-03-12 03:12:00,41.0,37.0,29.93,NW,308,0.0,2.0,87,0.00,,,0.94,,2013-03-12 07:12:00,
2013-03-12 03:22:00,40.0,36.0,29.93,NW,308,1.0,2.0,86,0.00,,,0.94,,2013-03-12 07:22:00,
2013-03-12 03:32:00,40.0,36.0,29.94,NW,309,0.0,3.0,86,0.00,,,0.94,,2013-03-12 07:32:00,
2013-03-12 03:42:00,40.0,36.0,29.94,NW,309,0.0,3.0,86,0.00,,,0.94,,2013-03-12 07:42:00,
2013-03-12 03:52:00,40.0,36.0,29.94,NW,309,1.0,3.0,85,0.00,,,0.94,,2013-03-12 07:52:00,
2013-03-12 04:02:00,40.0,36.0,29.93,NW,310,1.0,4.0,85,0.00,,,0.94,,2013-03-12 08:02:00,
2013-03-12 04:13:00,40.0,36.0,29.93,NW,310,1.0,4.0,85,0.00,,,0.94,,2013-03-12 08:13:00,
2013-03-12 04:22:00,40.0,36.0,29.94,NW,311,1.0,5.0,84,0.00,,,0.94,,2013-03-12 08:22:00,
2013-03-12 04:33:00,40.0,35.0,29.94,NW,312,3.0,8.0,82,0.00,,,0.94,,2013-03-12 08:33:00,
2013-03-12 04:42:00,40.0,35.0,29.94,NW,312,3.0,8.0,82,0.00,,,0.94,,2013-03-12 08:42:00,
2013-03-12 04:52:00,40.0,34.0,29.94,NW,321,1.0,6.0,78,0.00,,,0.94,,2013-03-12 08:52:00,
2013-03-12 05:03:00,40.0,33.0,29.93,NW,317,1.0,5.0,77,0.00,,,0.94,,2013-03-12 09:03:00,
2013-03-12 05:12:00,40.0,33.0,29.93,NW,317,1.0,5.0,77,0.00,,,0.94,,2013-03-12 09:12:00,
2013-03-12 05:22:00,39.0,32.0,29.93,NW,311,2.0,6.0,76,0.00,,,0.94,,2013-03-12 09:22:00,
2013-03-12 05:32:00,39.0,32.0,29.93,WNW,294,0.0,4.0,77,0.00,,,0.94,,2013-03-12 09:32:00,
2013-03-12 05:42:00,39.0,32.0,29.93,WNW,294,0.0,4.0,77,0.00,,,0.94,,2013-03-12 09:42:00,
2013-03-12 05:52:00,39.0,32.0,29.94,NW,315,2.0,5.0,77,0.00,,,0.94,,2013-03-12 09:52:00,
2013-03-12 06:02:00,39.0,33.0,29.94,NW,308,0.0,4.0,78,0.00,,,0.94,,2013-03-12 10:02:00,
2013-03-12 06:12:00,39.0,33.0,29.94,NW,308,0.0,4.0,78,0.00,,,0.94,,2013-03-12 10:12:00,
2013-03-12 06:22:00,39.0,33.0,29.95,NW,308,0.0,3.0,80,0.00,,,0.94,,2013-03-12 10:22:00,
2013-03-12 06:32:00,39.0,34.0,29.96,NW,308,0.0,2.0,81,0.00,,,0.94,,2013-03-12 10:32:00,
2013-03-12 06:42:00,39.0,34.0,29.96,NW,308,0.0,2.0,81,0.00,,,0.94,,2013-03-12 10:42:00,
2013-03-12 06:53:00,39.0,33.0,29.97,NW,321,0.0,3.0,80,0.00,,,0.94,,2013-03-12 10:53:00,
2013-03-12 07:02:00,39.0,32.0,29.98,NW,313,2.0,4.0,77,0.00,,,0.94,,2013-03-12 11:02:00,
2013-03-12 07:12:00,39.0,32.0,29.98,NW,313,2.0,4.0,77,0.00,,,0.94,,2013-03-12 11:12:00,
2013-03-12 07:22:00,39.0,32.0,29.98,NW,318,1.0,4.0,77,0.00,,,0.94,,2013-03-12 11:22:00,
2013-03-12 07:32:00,39.0,32.0,29.99,NW,316,1.0,4.0,77,0.00,,,0.94,,2013-03-12 11:32:00,
2013-03-12 07:42:00,39.0,32.0,29.99,NW,316,1.0,4.0,77,0.00,,,0.94,,2013-03-12 11:42:00,
2013-03-12 07:52:00,39.0,32.0,29.99,NW,316,0.0,2.0,77,0.00,,,0.94,,2013-03-12 11:52:00,
2013-03-12 08:02:00,39.0,32.0,29.99,NW,316,0.0,2.0,77,0.00,,,0.94,,2013-03-12 12:02:00,
2013-03-12 08:12:00,39.0,32.0,29.99,NW,316,0.0,2.0,77,0.00,,,0.94,,2013-03-12 12:12:00,
2013-03-12 08:22:00,38.0,31.0,29.99,NW,316,1.0,3.0,77,0.00,,,0.94,,2013-03-12 12:22:00,
2013-03-12 08:32:00,38.0,31.0,29.99,NW,317,0.0,3.0,75,0.00,,,0.94,,2013-03-12 12:32:00,
2013-03-12 08:42:00,38.0,31.0,29.99,NW,317,0.0,3.0,75,0.00,,,0.94,,2013-03-12 12:42:00,
2013-03-12 08:52:00,38.0,31.0,30.00,NW,317,0.0,2.0,76,0.00,,,0.94,,2013-03-12 12:52:00,
2013-03-12 09:02:00,39.0,32.0,30.00,NW,317,0.0,1.0,76,0.00,,,0.94,,2013-03-12 13:02:00,
2013-03-12 09:12:00,39.0,32.0,30.00,NW,317,0.0,1.0,76,0.00,,,0.94,,2013-03-12 13:12:00,
2013-03-12 09:22:00,39.0,31.0,30.01,NW,315,1.0,4.0,74,0.00,,,0.94,,2013-03-12 13:22:00,
2013-03-12 09:32:00,39.0,31.0,30.01,NW,318,1.0,6.0,73,0.00,,,0.94,,2013-03-12 13:32:00,
2013-03-12 09:42:00,39.0,31.0,30.01,NW,318,1.0,6.0,73,0.00,,,0.94,,2013-03-12 13:42:00,
2013-03-12 09:52:00,39.0,31.0,30.01,WNW,303,1.0,5.0,72,0.00,,,0.94,,2013-03-12 13:52:00,
2013-03-12 10:02:00,39.0,31.0,30.02,NW,320,2.0,5.0,73,0.00,,,0.94,,2013-03-12 14:02:00,
2013-03-12 10:12:00,39.0,31.0,30.02,NW,320,2.0,5.0,73,0.00,,,0.94,,2013-03-12 14:12:00,
2013-03-12 10:22:00,39.0,31.0,30.03,NW,305,2.0,5.0,72,0.00,,,0.94,,2013-03-12 14:22:00,
2013-03-12 10:33:00,40.0,32.0,30.04,NW,306,2.0,4.0,74,0.00,,,0.94,,2013-03-12 14:33:00,
2013-03-12 10:42:00,40.0,32.0,30.04,NW,306,2.0,4.0,74,0.00,,,0.94,,2013-03-12 14:42:00,
2013-03-12 10:53:00,40.0,32.0,30.04,WNW,302,2.0,6.0,72,0.00,,,0.94,,2013-03-12 14:53:00,
2013-03-12 11:02:00,40.0,31.0,30.05,NW,319,0.0,3.0,70,0.00,,,0.94,,2013-03-12 15:02:00,
2013-03-12 11:13:00,40.0,31.0,30.05,NW,319,0.0,3.0,70,0.00,,,0.94,,2013-03-12 15:13:00,
2013-03-12 11:22:00,41.0,32.0,30.05,NW,310,2.0,9.0,69,0.00,,,0.94,,2013-03-12 15:22:00,
2013-03-12 11:32:00,42.0,33.0,30.05,WNW,300,2.0,8.0,70,0.00,,,0.94,,2013-03-12 15:32:00,
2013-03-12 11:42:00,42.0,33.0,30.05,WNW,300,2.0,8.0,70,0.00,,,0.94,,2013-03-12 15:42:00,
2013-03-12 11:53:00,42.0,32.0,30.05,NW,315,0.0,5.0,68,0.00,,,0.94,,2013-03-12 15:53:00,
2013-03-12 12:02:00,43.0,34.0,30.05,NNW,341,1.0,2.0,69,0.00,,,0.94,,2013-03-12 16:02:00,
2013-03-12 12:12:00,43.0,34.0,30.05,NNW,341,1.0,2.0,69,0.00,,,0.94,,2013-03-12 16:12:00,
2013-03-12 12:22:00,43.0,33.0,30.06,NW,311,1.0,7.0,67,0.00,,,0.94,,2013-03-12 16:22:00,
2013-03-12 12:33:00,44.0,33.0,30.06,WNW,296,5.0,7.0,64,0.00,,,0.94,,2013-03-12 16:33:00,
2013-03-12 12:43:00,44.0,33.0,30.06,WNW,296,5.0,7.0,64,0.00,,,0.94,,2013-03-12 16:43:00,
2013-03-12 12:53:00,44.0,32.0,30.06,NNW,332,0.0,4.0,63,0.00,,,0.94,,2013-03-12 16:53:00,
2013-03-12 13:03:00,45.0,33.0,30.06,NNW,329,1.0,6.0,63,0.00,,,0.94,,2013-03-12 17:03:00,
2013-03-12 13:13:00,45.0,33.0,30.06,NNW,329,1.0,6.0,63,0.00,,,0.94,,2013-03-12 17:13:00,
2013-03-12 13:22:00,46.0,34.0,30.06,NW,322,1.0,6.0,62,0.00,,,0.94,,2013-03-12 17:22:00,
2013-03-12 13:34:00,46.0,32.0,30.07,NW,307,2.0,5.0,59,0.00,,,0.94,,2013-03-12 17:34:00,
2013-03-12 13:43:00,46.0,32.0,30.07,NW,307,2.0,5.0,59,0.00,,,0.94,,2013-03-12 17:43:00,
2013-03-12 13:54:00,47.0,33.0,30.07,WNW,290,3.0,8.0,59,0.00,,,0.94,,2013-03-12 17:54:00,
2013-03-12 14:03:00,48.0,33.0,30.07,NNW,337,3.0,12.0,56,0.00,,,0.94,,2013-03-12 18:03:00,
2013-03-12 14:13:00,49.0,33.0,30.06,North,5,1.0,3.0,53,0.00,,,0.86,,2013-03-12 18:13:00,
2013-03-12 14:23:00,49.0,33.0,30.06,North,5,1.0,3.0,53,0.00,,,0.86,,2013-03-12 18:23:00,
2013-03-12 14:33:00,49.0,31.0,30.06,NW,317,2.0,5.0,50,0.00,,,0.86,,2013-03-12 18:33:00,
2013-03-12 14:42:00,49.0,31.0,30.06,NW,317,2.0,5.0,50,0.00,,,0.86,,2013-03-12 18:42:00,
2013-03-12 14:53:00,51.0,34.0,30.04,NW,304,5.0,10.0,52,0.00,,,0.86,,2013-03-12 18:53:00,
2013-03-12 15:03:00,51.0,33.0,30.04,NNW,329,1.0,3.0,50,0.00,,,0.86,,2013-03-12 19:03:00,
2013-03-12 15:13:00,51.0,33.0,30.04,NNW,329,1.0,3.0,50,0.00,,,0.86,,2013-03-12 19:13:00,
2013-03-12 15:23:00,51.0,32.0,30.04,North,355,1.0,4.0,48,0.00,,,0.57,,2013-03-12 19:23:00,
2013-03-12 15:33:00,52.0,31.0,30.03,NW,317,0.0,5.0,45,0.00,,,0.57,,2013-03-12 19:33:00,
2013-03-12 15:43:00,52.0,31.0,30.03,NW,317,0.0,5.0,45,0.00,,,0.57,,2013-03-12 19:43:00,
2013-03-12 15:53:00,53.0,32.0,30.03,NNE,17,1.0,6.0,45,0.00,,,0.57,,2013-03-12 19:53:00,
2013-03-12 16:02:00,54.0,34.0,30.02,NNW,335,1.0,3.0,46,0.00,,,0.57,,2013-03-12 20:02:00,
2013-03-12 16:12:00,54.0,34.0,30.02,NNW,335,1.0,3.0,46,0.00,,,0.57,,2013-03-12 20:12:00,
2013-03-12 16:23:00,54.0,31.0,30.02,NW,309,1.0,7.0,42,0.00,,,0.42,,2013-03-12 20:23:00,
2013-03-12 16:32:00,54.0,32.0,30.02,NW,317,1.0,4.0,43,0.00,,,0.42,,2013-03-12 20:32:00,
2013-03-12 16:42:00,54.0,32.0,30.02,NW,317,1.0,4.0,43,0.00,,,0.42,,2013-03-12 20:42:00,
2013-03-12 16:53:00,56.0,33.0,30.02,NW,304,1.0,6.0,42,0.00,,,0.42,,2013-03-12 20:53:00,
2013-03-12 17:03:00,55.0,34.0,30.02,NNW,342,2.0,8.0,45,0.00,,,0.42,,2013-03-12 21:03:00,
2013-03-12 17:13:00,55.0,34.0,30.02,NNW,342,2.0,8.0,45,0.00,,,0.42,,2013-03-12 21:13:00,
2013-03-12 17:22:00,55.0,32.0,30.02,West,270,3.0,7.0,42,0.00,,,0.22,,2013-03-12 21:22:00,
2013-03-12 17:33:00,56.0,33.0,30.02,WNW,292,3.0,5.0,42,0.00,,,0.22,,2013-03-12 21:33:00,
2013-03-12 17:43:00,56.0,33.0,30.02,WNW,292,3.0,5.0,42,0.00,,,0.22,,2013-03-12 21:43:00,
2013-03-12 17:53:00,56.0,34.0,30.02,WNW,284,2.0,7.0,43,0.00,,,0.22,,2013-03-12 21:53:00,
2013-03-12 18:02:00,57.0,32.0,30.03,WNW,298,6.0,10.0,38,0.00,,,0.22,,2013-03-12 22:02:00,
2013-03-12 18:12:00,57.0,32.0,30.03,WNW,298,6.0,10.0,38,0.00,,,0.22,,2013-03-12 22:12:00,
2013-03-12 18:22:00,56.0,32.0,30.03,NW,318,3.0,11.0,40,0.00,,,0.14,,2013-03-12 22:22:00,
2013-03-12 18:33:00,55.0,30.0,30.03,WNW,299,5.0,10.0,38,0.00,,,0.14,,2013-03-12 22:33:00,
2013-03-12 18:43:00,55.0,30.0,30.03,WNW,299,5.0,10.0,38,0.00,,,0.14,,2013-03-12 22:43:00,
2013-03-12 18:53:00,55.0,29.0,30.03,NW,306,3.0,12.0,37,0.00,,,0.14,,2013-03-12 22:53:00,
2013-03-12 19:02:00,54.0,30.0,30.03,NNW,327,4.0,7.0,39,0.00,,,0.14,,2013-03-12 23:02:00,
2013-03-12 19:12:00,54.0,30.0,30.03,NNW,327,4.0,7.0,39,0.00,,,0.14,,2013-03-12 23:12:00,
2013-03-12 19:23:00,54.0,30.0,30.03,NW,308,3.0,7.0,40,0.00,,,0.13,,2013-03-12 23:23:00,
2013-03-12 19:34:00,53.0,31.0,30.04,NW,304,1.0,6.0,43,0.00,,,0.13,,2013-03-12 23:34:00,
2013-03-12 19:43:00,53.0,31.0,30.04,NW,304,1.0,6.0,43,0.00,,,0.13,,2013-03-12 23:43:00,
2013-03-12 19:52:00,51.0,30.0,30.04,NW,326,1.0,4.0,45,0.00,,,0.13,,2013-03-12 23:52:00,
2013-03-12 20:03:00,50.0,31.0,30.05,NW,326,0.0,2.0,48,0.00,,,0.13,,2013-03-13 00:03:00,
2013-03-12 20:13:00,50.0,31.0,30.05,NW,326,0.0,2.0,48,0.00,,,0.13,,2013-03-13 00:13:00,
2013-03-12 20:23:00,48.0,31.0,30.06,NW,326,0.0,1.0,52,0.00,,,0.03,,2013-03-13 00:23:00,
2013-03-12 20:33:00,48.0,31.0,30.06,NW,326,0.0,0.0,51,0.00,,,0.03,,2013-03-13 00:33:00,
2013-03-12 20:42:00,48.0,31.0,30.06,NW,326,0.0,0.0,51,0.00,,,0.03,,2013-03-13 00:42:00,
2013-03-12 20:53:00,47.0,30.0,30.07,NW,326,0.0,0.0,52,0.00,,,0.03,,2013-03-13 00:53:00,
2013-03-12 21:03:00,47.0,30.0,30.07,NW,326,0.0,0.0,52,0.00,,,0.03,,2013-03-13 01:03:00,
2013-03-12 21:13:00,47.0,30.0,30.07,NW,326,0.0,0.0,52,0.00,,,0.03,,2013-03-13 01:13:00,
2013-03-12 21:22:00,47.0,31.0,30.08,NW,326,0.0,0.0,53,0.00,,,0.01,,2013-03-13 01:22:00,
2013-03-12 21:32:00,47.0,31.0,30.08,NW,326,0.0,0.0,53,0.00,,,0.01,,2013-03-13 01:32:00,
2013-03-12 21:42:00,47.0,31.0,30.08,NW,326,0.0,0.0,53,0.00,,,0.01,,2013-03-13 01:42:00,
2013-03-12 21:53:00,47.0,30.0,30.08,NW,326,0.0,0.0,52,0.00,,,0.01,,2013-03-13 01:53:00,
2013-03-12 22:02:00,45.0,30.0,30.09,NW,326,0.0,0.0,56,0.00,,,0.01,,2013-03-13 02:02:00,
2013-03-12 22:12:00,45.0,30.0,30.09,NW,326,0.0,0.0,56,0.00,,,0.01,,2013-03-13 02:12:00,
2013-03-12 22:22:00,45.0,30.0,30.09,NW,326,0.0,0.0,55,0.00,,,0.01,,2013-03-13 02:22:00,
2013-03-12 22:32:00,46.0,30.0,30.09,NW,326,0.0,0.0,54,0.00,,,0.01,,2013-03-13 02:32:00,
2013-03-12 22:43:00,46.0,30.0,30.09,NW,326,0.0,0.0,54,0.00,,,0.01,,2013-03-13 02:43:00,
2013-03-12 22:53:00,46.0,30.0,30.09,NW,326,0.0,0.0,53,0.00,,,0.01,,2013-03-13 02:53:00,
2013-03-12 23:02:00,46.0,30.0,30.09,NW,326,0.0,0.0,54,-99.99,,,-99.99,,2013-03-13 03:02:00,
2013-03-12 23:13:00,46.0,30.0,30.09,NW,326,0.0,0.0,54,-99.99,,,-99.99,,2013-03-13 03:13:00,
2013-03-12 23:22:00,42.0,32.0,30.10,NW,326,0.0,0.0,67,0.00,,,0.00,,2013-03-13 03:22:00,
2013-03-12 23:32:00,43.0,30.0,30.10,NW,326,0.0,0.0,59,0.00,,,0.00,,2013-03-13 03:32:00,
2013-03-12 23:42:00,43.0,30.0,30.10,NW,326,0.0,0.0,59,0.00,,,0.00,,2013-03-13 03:42:00,
2013-03-12 23:53:00,41.0,32.0,30.10,NW,326,0.0,0.0,70,0.00,,,0.00,,2013-03-13 03:53:00,